Seward, IL (61077)

7:17 PM CST on January 20, 2017 (GMT -0600)
Highway 20 - On the County Line | | Change Station

Elev 676 ft 42.29 °N, 89.40 °W | Updated 0 second ago

Fog
Fog
38.4 °F
Feels Like 38 °F
N
0.0
Wind Variable Wind from SSE
Gusts 0.0 mph

Today
High -- | Low -- °F
--% Chance of Precip.
Yesterday
High -- | Low -- °F
Precip. -- in
Pressure 29.65 in
Visibility 0.2 miles
Clouds Overcast 200 ft
Windchill 38 °F
Dew Point 38 °F
Humidity 98%
Rainfall 0.00 in
Snow Depth Not available.
7:20 AM 4:56 PM
Last Quarter, 39% visible
METAR KFEP 210055Z AUTO 11004KT 1/4SM FG OVC002 03/03 A2965 RMK AO2 T00260025
Pressure 29.65 in
Visibility 0.2 miles
Clouds Overcast 200 ft
Windchill 38 °F
Dew Point 38 °F
Humidity 98%
Rainfall 0.00 in
Snow Depth Not available.
7:20 AM 4:56 PM
Last Quarter, 39% visible
METAR KFEP 210055Z AUTO 11004KT 1/4SM FG OVC002 03/03 A2965 RMK AO2 T00260025

Get Your Daily Forecast Email!

Thanks for signing up!

Be on the lookout for a verification email in your inbox.

You'll start receiving the daily forecast at 8 AM.

×

10-Day Weather Forecast

Almanac

Astronomy

Jan. 20, 2017 Rise Set
Actual Time
Civil Twilight
Nautical Twilight
Astronomical Twilight
Moon
Length of Visible Light
Length of Day
Tomorrow will be .
, % of the Moon is Illuminated

Today's Extremes

State Highs State Lows

Community

WunderPhotos

Upload Photos

1,962,540 photos uploaded!

WunderBlog® & News

Nearby

Air Quality

  Air Quality AQ Index Pollutant
Not available.

Snow Depth

Station Depth Elevation

Earthquake Activity

City Distance Mag. Time & Date
Minimum magnitude displayed is 2.5.

Coastal Water Temperatures

Place Temperature

Stations

Nearby Weather Stations

Station Location Temp. Windchill Dew Point Humidity Wind Precip. Elev Updated Type
                   

Watches & Warnings

Flood Advisory
Issued: 10:24 AM CST Jan. 20, 2017 – National Weather Service

The Flood Advisory continues for
the Pecatonica River near Shirland
* until Friday January 27.
* At 1000 am Friday the stage was 10.7 feet.
* Action stage is 11.0 feet.
* Flood stage is 12.0 feet.
* Forecast... the river will rise to near 11.8 feet by Sunday
afternoon.
* Impact... at 12.0 feet... water overflows low lying areas near the
river.


Lat... Lon 4247 8922 4236 8940 4229 8934 4240 8917
      4242 8907 4249 8909




Dense Fog Advisory
Issued: 4:29 PM CST Jan. 20, 2017 – National Weather Service

... Dense fog advisory in effect until 9 am CST Saturday...

The National Weather Service in Chicago has issued a dense fog
advisory... which is in effect until 9 am CST Saturday.

* Visibility... dropping to one quarter mile or less at times.

Precautionary/preparedness actions...

A dense fog advisory means visibilities will frequently be
reduced to less than one quarter mile. If driving... slow down...
use your headlights... and leave plenty of distance ahead of you.



Izzi